Time;durP1;ratioP1;P1;durP2;ratioP2;P2;SDS_P1;SDS_P2;PMS_P1;PMS_P2;Temp;Humidity;BMP_temperature;BMP_pressure;BME280_temperature;BME280_humidity;BME280_pressure;Samples;Min_cycle;Max_cycle;Signal;HPM_P1;HPM_P2
2022/10/16 00:01:12;;;;;;;6.82;3.28;;;;;;;12.31;100.00;100837.69;5033317;28;20079;-73
2022/10/16 00:03:41;;;;;;;11.80;3.75;;;;;;;12.32;100.00;100839.31;5035614;28;20099;-72
2022/10/16 00:06:08;;;;;;;6.65;3.35;;;;;;;12.32;100.00;100828.47;5020993;28;20028;-75
2022/10/16 00:08:34;;;;;;;6.75;3.83;;;;;;;12.29;100.00;100823.50;5014850;28;20512;-71
2022/10/16 00:11:03;;;;;;;8.60;3.85;;;;;;;12.27;100.00;100828.34;5014645;28;20042;-71
2022/10/16 00:13:30;;;;;;;8.30;3.75;;;;;;;12.27;100.00;100826.47;5016046;28;20083;-72
2022/10/16 00:15:57;;;;;;;9.65;3.67;;;;;;;12.21;100.00;100828.25;5013792;28;20022;-74
2022/10/16 00:18:24;;;;;;;5.68;3.42;;;;;;;12.23;100.00;100833.44;5019117;28;20036;-72
2022/10/16 00:20:49;;;;;;;8.55;3.83;;;;;;;12.22;100.00;100824.47;5035144;28;20014;-72
2022/10/16 00:23:15;;;;;;;5.47;3.42;;;;;;;12.19;100.00;100835.78;5035398;28;20029;-73
2022/10/16 00:25:40;;;;;;;9.35;3.80;;;;;;;12.21;100.00;100828.25;5035597;28;20067;-72
2022/10/16 00:28:05;;;;;;;9.52;3.70;;;;;;;12.19;100.00;100824.94;5033932;28;20028;-73
2022/10/16 00:30:31;;;;;;;8.48;3.55;;;;;;;12.12;100.00;100824.22;5035541;28;20060;-72
2022/10/16 00:32:56;;;;;;;10.00;3.65;;;;;;;12.17;100.00;100827.06;5034071;28;20024;-73
2022/10/16 00:35:22;;;;;;;4.55;3.33;;;;;;;12.17;100.00;100831.69;5035479;28;20021;-73
2022/10/16 00:37:47;;;;;;;6.18;3.63;;;;;;;12.13;100.00;100834.03;5016237;28;20029;-73
2022/10/16 00:40:13;;;;;;;8.32;3.58;;;;;;;12.14;100.00;100832.97;5014318;28;20029;-73
2022/10/16 00:42:38;;;;;;;5.68;3.08;;;;;;;12.15;100.00;100833.78;5015278;28;20468;-70
2022/10/16 00:45:04;;;;;;;9.80;3.30;;;;;;;12.15;100.00;100834.63;5015254;28;20030;-73
2022/10/16 00:47:36;;;;;;;7.95;3.47;;;;;;;12.10;100.00;100839.91;5013976;28;20021;-71
2022/10/16 00:50:14;;;;;;;8.00;3.40;;;;;;;12.13;100.00;100836.72;5013909;28;20030;-72
2022/10/16 00:52:43;;;;;;;5.65;3.10;;;;;;;12.14;100.00;100837.53;5014172;28;20018;-70
2022/10/16 00:55:09;;;;;;;5.80;2.90;;;;;;;12.12;100.00;100840.50;5023309;28;20034;-72
2022/10/16 00:57:35;;;;;;;6.85;2.80;;;;;;;12.09;100.00;100835.53;5034556;28;20025;-74
2022/10/16 01:00:03;;;;;;;7.95;3.15;;;;;;;12.12;100.00;100840.50;5034763;28;20506;-73
2022/10/16 01:02:29;;;;;;;7.05;2.75;;;;;;;12.08;100.00;100827.63;5029353;28;20404;-72
2022/10/16 01:04:54;;;;;;;8.13;3.10;;;;;;;12.06;100.00;100830.59;5013614;28;20030;-70
2022/10/16 01:07:26;;;;;;;6.78;2.92;;;;;;;12.08;100.00;100825.78;5014835;28;20022;-72
2022/10/16 01:09:57;;;;;;;;;;;;;;;12.18;100.00;100828.72;5015231;28;20080;-71
2022/10/16 01:12:33;;;;;;;4.65;2.78;;;;;;;12.07;100.00;100832.25;5013696;28;19948;-71
2022/10/16 01:15:00;;;;;;;6.43;2.90;;;;;;;12.03;100.00;100831.06;5019191;28;20064;-71
2022/10/16 01:17:39;;;;;;;6.40;3.13;;;;;;;12.03;100.00;100826.47;5014591;28;20021;-75
2022/10/16 01:20:09;;;;;;;4.63;2.80;;;;;;;12.01;100.00;100828.59;5013966;28;20489;-73
2022/10/16 01:22:59;;;;;;;4.20;2.80;;;;;;;11.97;100.00;100832.00;5014544;28;20037;-74
2022/10/16 01:25:46;;;;;;;4.85;2.83;;;;;;;11.99;100.00;100841.56;5014471;28;20054;-71
2022/10/16 01:28:14;;;;;;;5.88;2.90;;;;;;;11.97;100.00;100845.56;5014617;28;20105;-72
2022/10/16 01:30:43;;;;;;;7.07;2.92;;;;;;;11.99;100.00;100836.13;5014471;28;20018;-73
2022/10/16 01:33:18;;;;;;;3.70;2.53;;;;;;;11.98;100.00;100847.22;5014154;28;20051;-73
2022/10/16 01:35:51;;;;;;;3.88;2.75;;;;;;;11.95;100.00;100836.84;5013277;28;20449;-73
2022/10/16 01:38:36;;;;;;;6.93;2.72;;;;;;;11.97;100.00;100832.00;5017265;28;20056;-72
2022/10/16 01:41:09;;;;;;;7.65;3.67;;;;;;;11.94;100.00;100836.03;5014213;28;20029;-73
2022/10/16 01:43:47;;;;;;;5.70;2.90;;;;;;;12.01;100.00;100846.75;5013593;28;20025;-73
2022/10/16 01:46:16;;;;;;;5.65;2.85;;;;;;;12.00;100.00;100842.38;5013096;28;20024;-71
2022/10/16 01:48:42;;;;;;;5.18;2.60;;;;;;;12.01;100.00;100833.19;5014116;28;20031;-74
2022/10/16 01:51:11;;;;;;;5.50;2.95;;;;;;;11.99;100.00;100819.06;5012725;28;20416;-72
2022/10/16 01:53:38;;;;;;;3.95;2.47;;;;;;;12.01;100.00;100830.47;5012648;28;20030;-74
2022/10/16 01:56:08;;;;;;;5.70;2.63;;;;;;;12.02;100.00;100830.25;5012713;28;20030;-72
2022/10/16 01:58:39;;;;;;;5.43;3.03;;;;;;;11.98;100.00;100828.25;5014185;28;20053;-73
2022/10/16 02:01:09;;;;;;;4.32;2.53;;;;;;;11.98;100.00;100822.81;5012042;28;20033;-73
2022/10/16 02:03:38;;;;;;;4.90;2.63;;;;;;;11.99;100.00;100833.44;5033812;28;20022;-71
2022/10/16 02:06:04;;;;;;;4.75;2.47;;;;;;;12.01;100.00;100836.72;5033525;28;20025;-70
2022/10/16 02:08:30;;;;;;;5.53;2.60;;;;;;;12.02;100.00;100832.13;5033468;28;20342;-72
2022/10/16 02:10:57;;;;;;;6.53;2.50;;;;;;;12.04;100.00;100843.56;5031029;28;20036;-72
2022/10/16 02:13:29;;;;;;;4.53;2.53;;;;;;;12.05;100.00;100843.34;5032043;28;20022;-73
2022/10/16 02:15:54;;;;;;;7.25;2.42;;;;;;;12.05;100.00;100845.22;5033113;28;20029;-74
2022/10/16 02:18:19;;;;;;;5.68;2.80;;;;;;;12.04;100.00;100846.28;5033356;28;20025;-73
2022/10/16 02:20:53;;;;;;;9.18;2.70;;;;;;;12.03;100.00;100840.03;5020406;28;20073;-72
2022/10/16 02:23:29;;;;;;;4.03;2.30;;;;;;;12.01;100.00;100834.00;5029222;28;20052;-74
2022/10/16 02:25:58;;;;;;;5.30;2.50;;;;;;;11.98;100.00;100833.66;5031708;28;20412;-72
2022/10/16 02:28:33;;;;;;;5.30;2.38;;;;;;;11.98;100.00;100836.38;5032028;28;20053;-72
2022/10/16 02:31:08;;;;;;;3.75;2.30;;;;;;;11.98;100.00;100833.66;5032862;28;20017;-70
2022/10/16 02:33:38;;;;;;;5.25;2.53;;;;;;;11.94;100.00;100832.47;5017696;28;20442;-71
2022/10/16 02:36:03;;;;;;;4.15;2.30;;;;;;;11.96;100.00;100836.63;5013285;28;20026;-74
2022/10/16 02:38:30;;;;;;;2.72;2.35;;;;;;;11.95;100.00;100844.97;5013340;28;20405;-72
2022/10/16 02:40:56;;;;;;;4.45;2.30;;;;;;;11.93;100.00;100844.41;5011718;28;20018;-71
2022/10/16 02:43:21;;;;;;;4.30;2.30;;;;;;;11.93;100.00;100847.94;5012206;28;20430;-73
2022/10/16 02:45:46;;;;;;;4.72;2.22;;;;;;;11.88;100.00;100840.47;5013116;28;20068;-73
2022/10/16 02:48:12;;;;;;;4.63;1.95;;;;;;;11.87;100.00;100844.22;5011803;28;20361;-73
2022/10/16 02:50:37;;;;;;;5.50;2.10;;;;;;;11.92;100.00;100840.00;5015245;28;20121;-74
2022/10/16 02:53:02;;;;;;;4.47;2.20;;;;;;;11.88;100.00;100840.47;5031395;28;20029;-73
2022/10/16 02:55:28;;;;;;;6.05;2.50;;;;;;;11.85;100.00;100835.50;5032996;28;20365;-74
2022/10/16 02:57:53;;;;;;;5.85;2.33;;;;;;;11.85;100.00;100824.66;5032351;28;20022;-73
2022/10/16 03:00:19;;;;;;;4.88;2.03;;;;;;;11.83;100.00;100837.63;5032191;28;20022;-72
2022/10/16 03:02:44;;;;;;;4.10;1.88;;;;;;;11.83;100.00;100837.63;5029804;28;20064;-74
2022/10/16 03:05:10;;;;;;;6.07;2.20;;;;;;;11.81;100.00;100839.75;5032300;28;20032;-70
2022/10/16 03:07:35;;;;;;;3.00;1.90;;;;;;;11.80;100.00;100848.94;5032759;28;20400;-72
2022/10/16 03:10:01;;;;;;;5.68;2.28;;;;;;;11.77;100.00;100843.97;5030820;28;20473;-71
2022/10/16 03:12:27;;;;;;;3.67;2.10;;;;;;;11.77;100.00;100848.56;5032431;28;20013;-73
2022/10/16 03:14:53;;;;;;;4.28;2.10;;;;;;;11.77;100.00;100843.16;5031091;28;20533;-73
2022/10/16 03:17:18;;;;;;;4.63;1.90;;;;;;;11.77;100.00;100843.16;5031085;28;20060;-72
2022/10/16 03:19:44;;;;;;;3.47;1.92;;;;;;;11.75;100.00;100843.38;5031439;28;20121;-73
2022/10/16 03:22:09;;;;;;;3.40;1.90;;;;;;;11.77;100.00;100854.81;5030788;28;20076;-74
2022/10/16 03:24:35;;;;;;;5.10;1.90;;;;;;;11.77;100.00;100859.41;5031020;28;20041;-73
2022/10/16 03:27:00;;;;;;;5.03;1.98;;;;;;;11.77;100.00;100862.94;5031005;28;20026;-73
2022/10/16 03:29:27;;;;;;;5.65;2.33;;;;;;;11.78;100.00;100867.31;5031313;28;20021;-70
2022/10/16 03:31:52;;;;;;;5.13;1.73;;;;;;;11.77;100.00;100878.41;5031296;28;20364;-72
2022/10/16 03:34:18;;;;;;;7.25;2.00;;;;;;;11.76;100.00;100863.19;5026134;28;20028;-74
2022/10/16 03:36:43;;;;;;;5.15;2.10;;;;;;;11.76;100.00;100869.44;5011421;28;20061;-72
2022/10/16 03:39:08;;;;;;;5.05;2.25;;;;;;;11.77;100.00;100865.66;5012300;28;20018;-74
2022/10/16 03:41:34;;;;;;;3.53;1.60;;;;;;;11.78;100.00;100872.75;5012299;28;20039;-71
2022/10/16 03:43:59;;;;;;;3.67;1.95;;;;;;;11.78;100.00;100872.75;5012170;28;20022;-71
2022/10/16 03:46:24;;;;;;;4.15;1.65;;;;;;;11.76;100.00;100880.28;5012357;28;20068;-73
2022/10/16 03:48:50;;;;;;;4.13;1.80;;;;;;;11.79;100.00;100884.41;5011363;28;20164;-74
2022/10/16 03:51:15;;;;;;;3.33;1.70;;;;;;;11.79;100.00;100882.53;5015104;28;20399;-74
2022/10/16 03:53:40;;;;;;;4.03;1.67;;;;;;;11.77;100.00;100881.94;5012584;28;20593;-72
2022/10/16 03:56:06;;;;;;;4.38;1.80;;;;;;;11.76;100.00;100879.44;5011046;28;20030;-73
2022/10/16 03:58:31;;;;;;;3.63;1.83;;;;;;;11.78;100.00;100886.31;5012794;28;20022;-70
2022/10/16 04:00:56;;;;;;;3.88;1.88;;;;;;;11.78;100.00;100882.78;5008312;28;20018;-74
2022/10/16 04:03:22;;;;;;;4.32;2.20;;;;;;;11.79;100.00;100884.41;5010937;28;20373;-73
2022/10/16 04:05:48;;;;;;;5.40;1.85;;;;;;;11.78;100.00;100880.06;5012334;28;20022;-74
2022/10/16 04:08:13;;;;;;;6.28;2.00;;;;;;;11.79;100.00;100881.69;5012059;28;20022;-71
2022/10/16 04:10:38;;;;;;;2.55;1.80;;;;;;;11.80;100.00;100886.06;5011608;28;20437;-72
2022/10/16 04:13:04;;;;;;;7.95;2.00;;;;;;;11.78;100.00;100883.59;5010546;28;20041;-74
2022/10/16 04:15:29;;;;;;;3.53;2.30;;;;;;;11.82;100.00;100889.34;5012427;28;20028;-74
2022/10/16 04:17:54;;;;;;;6.80;2.83;;;;;;;11.81;100.00;100893.16;5012110;28;20033;-73
2022/10/16 04:20:20;;;;;;;3.95;2.15;;;;;;;11.80;100.00;100889.59;5012103;28;20026;-72
2022/10/16 04:22:45;;;;;;;5.55;2.53;;;;;;;11.80;100.00;100892.31;5012279;28;20105;-72
2022/10/16 04:25:11;;;;;;;3.00;2.25;;;;;;;11.80;100.00;100892.31;5011715;28;20481;-71
2022/10/16 04:27:38;;;;;;;2.50;2.00;;;;;;;11.81;100.00;100890.44;5010732;28;20025;-72
2022/10/16 04:30:04;;;;;;;4.60;2.53;;;;;;;11.79;100.00;100890.66;5012323;28;20061;-70
2022/10/16 04:32:29;;;;;;;5.13;2.20;;;;;;;11.81;100.00;100876.88;5011957;28;20036;-70
2022/10/16 04:34:54;;;;;;;3.90;2.28;;;;;;;11.81;100.00;100888.53;5015274;28;20029;-72
2022/10/16 04:37:25;;;;;;;4.65;2.30;;;;;;;11.82;100.00;100900.22;5015313;28;20149;-72
2022/10/16 04:39:50;;;;;;;6.45;2.28;;;;;;;11.80;100.00;100897.72;5015428;28;20392;-74
2022/10/16 04:42:15;;;;;;;3.80;2.22;;;;;;;11.82;100.00;100905.63;5013857;28;20018;-72
2022/10/16 04:44:40;;;;;;;5.93;2.40;;;;;;;11.82;100.00;100911.06;5015400;28;20080;-71
2022/10/16 04:47:06;;;;;;;4.25;2.30;;;;;;;11.80;100.00;100914.00;5029784;28;20038;-72
2022/10/16 04:49:31;;;;;;;4.53;2.40;;;;;;;11.82;100.00;100924.59;5033771;28;20029;-70
2022/10/16 04:51:56;;;;;;;5.15;2.50;;;;;;;11.81;100.00;100912.13;5033663;28;20079;-71
2022/10/16 04:54:22;;;;;;;3.97;2.40;;;;;;;11.84;100.00;100919.81;5033402;28;20021;-74
2022/10/16 04:56:49;;;;;;;8.05;2.50;;;;;;;11.83;100.00;100928.97;5033825;28;20032;-73
2022/10/16 04:59:15;;;;;;;4.68;2.67;;;;;;;11.83;100.00;100926.28;5033553;28;20111;-73
2022/10/16 05:01:40;;;;;;;2.90;2.20;;;;;;;11.83;100.00;100939.81;5032253;28;20551;-71
2022/10/16 05:04:06;;;;;;;7.95;2.50;;;;;;;11.81;100.00;100945.47;5034509;28;20079;-72
2022/10/16 05:06:31;;;;;;;6.03;2.50;;;;;;;11.79;100.00;100949.47;5031821;28;20496;-71
2022/10/16 05:08:56;;;;;;;7.28;2.47;;;;;;;11.79;100.00;100955.75;5013845;28;20026;-73
2022/10/16 05:11:22;;;;;;;4.25;2.20;;;;;;;11.80;100.00;100951.13;5014846;28;20021;-74
2022/10/16 05:13:47;;;;;;;5.32;2.35;;;;;;;11.77;100.00;100947.00;5014798;28;20057;-73
2022/10/16 05:16:12;;;;;;;4.53;2.30;;;;;;;11.76;100.00;100952.66;5013589;28;20033;-73
2022/10/16 05:18:37;;;;;;;5.18;2.70;;;;;;;11.74;100.00;100952.06;5014966;28;20068;-74
2022/10/16 05:21:03;;;;;;;5.45;2.30;;;;;;;11.75;100.00;100948.31;5014345;28;20072;-73
2022/10/16 05:23:28;;;;;;;6.35;2.42;;;;;;;11.75;100.00;100953.72;5014948;28;20022;-74
2022/10/16 05:25:58;;;;;;;3.30;2.10;;;;;;;11.73;100.00;100950.41;5013320;28;20042;-71
2022/10/16 05:28:28;;;;;;;3.80;2.25;;;;;;;11.71;100.00;100953.34;5019419;28;20026;-74
2022/10/16 05:30:53;;;;;;;7.25;2.33;;;;;;;11.68;100.00;100957.34;5034044;28;20029;-73
2022/10/16 05:33:24;;;;;;;6.68;2.30;;;;;;;11.70;100.00;100960.66;5024876;28;20079;-73
2022/10/16 05:35:50;;;;;;;4.55;2.45;;;;;;;11.69;100.00;100961.69;5014431;28;20048;-73
2022/10/16 05:38:17;;;;;;;5.10;2.50;;;;;;;11.69;100.00;100960.88;5029586;28;20107;-74
2022/10/16 05:40:42;;;;;;;6.93;2.70;;;;;;;11.68;100.00;100964.63;5013130;28;20060;-73
2022/10/16 05:43:08;;;;;;;7.72;2.60;;;;;;;11.67;100.00;100973.81;5014272;28;20021;-74
2022/10/16 05:45:33;;;;;;;5.47;2.40;;;;;;;11.69;100.00;100982.56;5014015;28;20065;-73
2022/10/16 05:47:59;;;;;;;5.78;2.50;;;;;;;11.67;100.00;100993.66;5013080;28;20026;-70
2022/10/16 05:50:25;;;;;;;4.18;2.50;;;;;;;11.67;100.00;100995.50;5012790;28;20032;-71
2022/10/16 05:52:50;;;;;;;4.22;2.50;;;;;;;11.65;100.00;100989.50;5017734;28;20017;-71
2022/10/16 05:55:15;;;;;;;5.45;2.60;;;;;;;11.65;100.00;100994.91;5024800;28;20458;-73
2022/10/16 05:57:41;;;;;;;5.20;2.78;;;;;;;11.66;100.00;101004.72;5013985;28;20492;-73
2022/10/16 06:00:06;;;;;;;4.10;2.55;;;;;;;11.64;100.00;101006.81;5013666;28;20478;-72
2022/10/16 06:02:32;;;;;;;4.15;2.40;;;;;;;11.64;100.00;101013.06;5026825;28;20092;-75
2022/10/16 06:04:57;;;;;;;5.28;2.65;;;;;;;11.65;100.00;101019.31;5012790;28;20105;-71
2022/10/16 06:07:23;;;;;;;6.72;2.75;;;;;;;11.65;100.00;101019.31;5012506;28;20029;-73
2022/10/16 06:09:52;;;;;;;5.80;3.08;;;;;;;11.65;100.00;101024.72;5013476;28;20021;-71
2022/10/16 06:12:18;;;;;;;5.82;2.40;;;;;;;11.66;100.00;101031.81;5012384;28;20031;-72
2022/10/16 06:14:44;;;;;;;6.07;3.10;;;;;;;11.67;100.00;101039.72;5013882;28;20105;-73
2022/10/16 06:17:10;;;;;;;7.15;2.80;;;;;;;11.71;100.00;101045.50;5013906;28;20034;-72
2022/10/16 06:19:35;;;;;;;11.07;3.05;;;;;;;11.66;100.00;101037.25;5013514;28;20068;-73
2022/10/16 06:22:04;;;;;;;7.65;2.75;;;;;;;11.70;100.00;101054.72;5013422;28;20032;-73
2022/10/16 06:24:29;;;;;;;6.78;2.67;;;;;;;11.68;100.00;101059.53;5013304;28;20125;-73
2022/10/16 06:26:54;;;;;;;6.32;2.60;;;;;;;11.69;100.00;101059.28;5013522;28;20520;-71
2022/10/16 06:29:20;;;;;;;7.88;2.60;;;;;;;11.69;100.00;101058.47;5025501;28;20022;-72
2022/10/16 06:31:45;;;;;;;5.03;2.58;;;;;;;11.68;100.00;101067.66;5033419;28;20045;-72
2022/10/16 06:34:11;;;;;;;6.18;2.78;;;;;;;11.67;100.00;101057.84;5031785;28;20025;-74
2022/10/16 06:36:38;;;;;;;6.47;2.42;;;;;;;11.66;100.00;101075.19;5033238;28;20056;-72
2022/10/16 06:39:03;;;;;;;4.95;2.60;;;;;;;11.66;100.00;101073.31;5033251;28;20071;-74
2022/10/16 06:41:29;;;;;;;5.13;2.45;;;;;;;11.66;100.00;101072.47;5032920;28;20060;-73
2022/10/16 06:43:54;;;;;;;10.68;2.80;;;;;;;11.69;100.00;101077.44;5032793;28;20076;-71
2022/10/16 06:46:22;;;;;;;9.13;2.88;;;;;;;11.69;100.00;101086.41;5031484;28;20124;-71
2022/10/16 06:48:47;;;;;;;7.45;2.80;;;;;;;11.72;100.00;101090.56;5033189;28;20025;-74
2022/10/16 06:51:15;;;;;;;5.35;2.60;;;;;;;11.75;100.00;101094.69;5032581;28;20516;-73
2022/10/16 06:53:43;;;;;;;6.25;2.58;;;;;;;11.76;100.00;101099.03;5032750;28;20036;-74
2022/10/16 06:56:13;;;;;;;7.40;2.70;;;;;;;11.77;100.00;101106.13;5032289;28;20017;-72
2022/10/16 06:58:39;;;;;;;3.85;2.72;;;;;;;11.80;100.00;101106.50;5031617;28;20024;-74
2022/10/16 07:01:05;;;;;;;5.45;2.42;;;;;;;11.82;100.00;101107.13;5030422;28;20021;-71
2022/10/16 07:03:31;;;;;;;13.45;2.70;;;;;;;11.85;100.00;101109.38;5032594;28;20025;-74
2022/10/16 07:05:56;;;;;;;5.00;2.55;;;;;;;11.88;100.00;101110.78;5026970;28;20022;-74
2022/10/16 07:08:22;;;;;;;3.35;2.45;;;;;;;11.88;100.00;101110.78;5032586;28;20027;-72
2022/10/16 07:10:47;;;;;;;6.47;2.20;;;;;;;11.92;100.00;101120.13;5032769;28;20468;-70
2022/10/16 07:13:14;;;;;;;4.03;2.38;;;;;;;11.95;100.00;101122.41;5032487;28;20063;-73
2022/10/16 07:15:40;;;;;;;6.40;2.25;;;;;;;12.00;100.00;101132.56;5032339;28;20358;-74
2022/10/16 07:18:06;;;;;;;6.53;2.50;;;;;;;12.05;100.00;101130.03;5032701;28;20044;-74
2022/10/16 07:20:31;;;;;;;7.80;2.33;;;;;;;12.08;100.00;101145.00;5032431;28;20465;-72
2022/10/16 07:22:56;;;;;;;8.07;2.85;;;;;;;12.14;100.00;101144.94;5031216;28;20044;-71
2022/10/16 07:25:21;;;;;;;6.35;2.50;;;;;;;12.17;100.00;101138.22;5032356;28;20065;-72
2022/10/16 07:27:47;;;;;;;7.05;2.42;;;;;;;12.21;100.00;101148.41;5032442;28;20024;-72
2022/10/16 07:30:12;;;;;;;5.28;2.28;;;;;;;12.27;100.00;101152.06;5032094;28;20133;-71
2022/10/16 07:32:37;;;;;;;6.47;2.40;;;;;;;12.31;100.00;101163.31;5032246;28;20041;-71
2022/10/16 07:35:04;;;;;;;11.48;2.60;;;;;;;12.34;100.00;101163.66;5032210;28;20017;-73
2022/10/16 07:37:29;;;;;;;4.72;2.28;;;;;;;12.40;100.00;101167.34;5030856;28;20030;-73
2022/10/16 07:39:54;;;;;;;7.78;2.63;;;;;;;12.46;100.00;101165.63;5032454;28;20028;-74
2022/10/16 07:42:20;;;;;;;6.63;2.28;;;;;;;12.51;100.00;101179.31;5029629;28;20619;-74
2022/10/16 07:44:45;;;;;;;9.10;2.60;;;;;;;12.55;100.00;101184.06;5012373;28;20113;-71
2022/10/16 07:47:10;;;;;;;8.80;2.72;;;;;;;12.61;100.00;101189.63;5012663;28;20025;-72
2022/10/16 07:49:36;;;;;;;5.40;2.47;;;;;;;12.65;100.00;101191.66;5011282;28;20580;-72
2022/10/16 07:52:01;;;;;;;7.75;2.25;;;;;;;12.73;100.00;101194.03;5012624;28;20061;-75
2022/10/16 07:54:26;;;;;;;4.78;2.28;;;;;;;12.77;100.00;101203.38;5011181;28;20441;-73
2022/10/16 07:56:51;;;;;;;4.32;2.13;;;;;;;12.82;100.00;101199.97;5018939;28;20022;-73
2022/10/16 07:59:17;;;;;;;5.43;2.38;;;;;;;12.87;100.00;101208.25;5013349;28;20126;-71
2022/10/16 08:01:42;;;;;;;6.75;2.50;;;;;;;12.92;100.00;101202.09;5010011;28;20033;-75
2022/10/16 08:04:08;;;;;;;9.05;2.28;;;;;;;12.93;100.00;101215.47;5012383;28;20114;-70
2022/10/16 08:06:39;;;;;;;12.75;2.53;;;;;;;12.98;100.00;101217.47;5010772;28;20033;-71
2022/10/16 08:09:06;;;;;;;4.28;2.22;;;;;;;13.03;100.00;101219.50;5028401;28;20396;-71
2022/10/16 08:11:31;;;;;;;6.70;2.30;;;;;;;13.09;100.00;101224.03;5015534;28;20032;-71
2022/10/16 08:13:57;;;;;;;9.05;2.25;;;;;;;13.12;100.00;101223.56;5030576;28;20116;-71
2022/10/16 08:16:22;;;;;;;9.65;2.92;;;;;;;13.16;100.00;101229.34;5015039;28;20034;-71
2022/10/16 08:18:47;;;;;;;8.15;2.55;;;;;;;13.21;100.00;101241.19;5015926;28;20163;-72
2022/10/16 08:21:16;;;;;;;7.53;2.20;;;;;;;13.25;100.00;101241.53;5013979;28;20361;-72
2022/10/16 08:23:42;;;;;;;5.80;2.60;;;;;;;13.29;100.00;101240.81;5015514;28;20029;-75
2022/10/16 08:26:08;;;;;;;6.57;2.20;;;;;;;13.31;100.00;101243.31;5015071;28;20424;-72
2022/10/16 08:28:34;;;;;;;6.57;2.17;;;;;;;13.35;100.00;101249.97;5015178;28;20037;-74
2022/10/16 08:31:27;;;;;;;6.22;2.20;;;;;;;13.45;100.00;101250.25;5015251;28;20029;-70
2022/10/16 08:33:52;;;;;;;4.55;2.00;;;;;;;13.46;100.00;101246.44;5027272;28;20102;-70
2022/10/16 08:36:17;;;;;;;8.95;2.47;;;;;;;13.54;100.00;101260.75;5035210;28;20025;-70
2022/10/16 08:38:43;;;;;;;10.02;2.47;;;;;;;13.51;100.00;101261.22;5035196;28;20094;-71
2022/10/16 08:41:08;;;;;;;6.82;2.30;;;;;;;13.62;100.00;101271.31;5035711;28;20024;-70
2022/10/16 08:43:50;;;;;;;4.73;2.30;;;;;;;13.67;100.00;101274.13;5035442;28;20033;-70
2022/10/16 08:46:27;;;;;;;5.90;2.22;;;;;;;13.75;100.00;101281.09;5034974;28;20638;-70
2022/10/16 08:48:59;;;;;;;6.78;2.30;;;;;;;13.77;100.00;101279.00;5032824;28;20489;-71
2022/10/16 08:51:27;;;;;;;5.65;2.13;;;;;;;13.83;100.00;101278.06;5014071;28;20366;-70
2022/10/16 08:53:57;;;;;;;7.35;2.58;;;;;;;13.88;100.00;101280.88;5015444;28;20045;-70
2022/10/16 08:56:24;;;;;;;6.32;2.20;;;;;;;13.92;100.00;101284.78;5014892;28;20037;-70
2022/10/16 08:58:51;;;;;;;8.38;2.10;;;;;;;13.95;100.00;101281.59;5015349;28;20037;-70
2022/10/16 09:01:19;;;;;;;6.13;2.00;;;;;;;13.98;100.00;101283.84;5014366;28;20033;-70
2022/10/16 09:04:23;;;;;;;8.15;2.15;;;;;;;14.03;100.00;101287.75;5034987;28;20045;-71
2022/10/16 09:06:52;;;;;;;6.18;2.10;;;;;;;14.07;100.00;101295.22;5035142;28;20109;-70
2022/10/16 09:09:36;;;;;;;7.22;2.40;;;;;;;14.09;100.00;101297.69;5034797;28;20028;-70
2022/10/16 09:12:11;;;;;;;4.85;1.65;;;;;;;14.16;100.00;101303.81;5035204;28;20025;-73
2022/10/16 09:14:54;;;;;;;9.65;2.00;;;;;;;14.24;100.00;101305.38;5034642;28;20480;-71
2022/10/16 09:17:35;;;;;;;7.57;2.30;;;;;;;14.29;100.00;101309.00;5034615;28;20025;-69
2022/10/16 09:20:03;;;;;;;7.65;2.30;;;;;;;14.31;100.00;101306.06;5022848;28;20040;-70
2022/10/16 09:22:31;;;;;;;6.07;1.83;;;;;;;14.37;100.00;101310.53;5032267;28;20033;-69
2022/10/16 09:25:01;;;;;;;14.55;2.50;;;;;;;14.45;100.00;101309.38;5025975;28;20037;-70
2022/10/16 09:27:26;;;;;;;9.30;2.13;;;;;;;14.46;100.00;101311.00;5034180;28;20108;-70
2022/10/16 09:29:51;;;;;;;8.75;2.10;;;;;;;14.50;100.00;101317.63;5018840;28;20592;-70
2022/10/16 09:32:20;;;;;;;7.97;2.00;;;;;;;14.51;100.00;101319.28;5031790;28;20480;-71
2022/10/16 09:34:49;;;;;;;5.55;1.85;;;;;;;14.58;100.00;101322.69;5034468;28;20028;-72
2022/10/16 09:37:18;;;;;;;11.18;2.90;;;;;;;14.67;100.00;101320.47;5034014;28;20168;-71
2022/10/16 09:39:48;;;;;;;13.73;2.05;;;;;;;14.67;100.00;101326.75;5034389;28;20083;-71
2022/10/16 09:42:35;;;;;;;8.57;2.10;;;;;;;14.68;100.00;101314.78;5032929;28;20024;-71
2022/10/16 09:45:01;;;;;;;8.48;2.00;;;;;;;14.76;100.00;101324.47;5033775;28;20021;-70
2022/10/16 09:47:28;;;;;;;11.23;2.30;;;;;;;14.74;100.00;101321.16;5033660;28;20022;-70
2022/10/16 09:50:01;;;;;;;6.78;2.08;;;;;;;14.71;100.00;101322.47;5034147;28;20454;-70
2022/10/16 09:52:27;;;;;;;9.48;2.72;;;;;;;14.72;100.00;101323.31;5034666;28;20078;-70
2022/10/16 09:54:58;;;;;;;8.40;2.22;;;;;;;14.69;100.00;101329.25;5033887;28;20025;-71
2022/10/16 09:57:25;;;;;;;8.40;2.42;;;;;;;14.73;100.00;101327.66;5033556;28;20104;-70
2022/10/16 09:59:52;;;;;;;11.68;2.00;;;;;;;14.76;100.00;101331.81;5034278;28;20040;-69
2022/10/16 10:02:31;;;;;;;12.63;2.42;;;;;;;14.78;100.00;101337.84;5014374;28;20152;-70
2022/10/16 10:04:57;;;;;;;8.80;2.33;;;;;;;14.79;100.00;101342.22;5014119;28;20457;-69
2022/10/16 10:07:37;;;;;;;12.85;2.35;;;;;;;14.82;100.00;101339.00;5013631;28;20037;-70
2022/10/16 10:10:05;;;;;;;11.20;2.38;;;;;;;14.82;100.00;101339.00;5013752;28;20461;-69
2022/10/16 10:12:33;;;;;;;8.15;2.00;;;;;;;14.95;100.00;101336.00;5013813;28;20057;-70
2022/10/16 10:15:05;;;;;;;9.15;2.22;;;;;;;15.00;100.00;101341.56;5030743;28;20029;-70
2022/10/16 10:17:31;;;;;;;13.23;2.60;;;;;;;14.96;100.00;101343.13;5033287;28;20116;-71
2022/10/16 10:20:20;;;;;;;10.15;2.10;;;;;;;14.95;100.00;101351.56;5024017;28;20125;-69
2022/10/16 10:22:46;;;;;;;12.07;3.13;;;;;;;14.93;100.00;101349.06;5029639;28;20048;-70
2022/10/16 10:25:11;;;;;;;10.50;2.50;;;;;;;14.94;100.00;101355.34;5033157;28;20049;-70
2022/10/16 10:27:47;;;;;;;15.27;3.43;;;;;;;14.97;100.00;101352.13;5031918;28;20025;-71
2022/10/16 10:30:29;;;;;;;12.55;2.42;;;;;;;15.04;100.00;101359.09;5033392;28;20276;-69
2022/10/16 10:33:11;;;;;;;;;;;;;;;15.09;100.00;101365.72;5033713;28;20032;-71
2022/10/16 10:35:55;;;;;;;14.55;3.05;;;;;;;15.00;100.00;101368.81;5030337;28;20044;-71
2022/10/16 10:38:33;;;;;;;13.07;2.75;;;;;;;15.04;100.00;101366.44;5022247;28;20079;-71
2022/10/16 10:41:32;;;;;;;10.45;2.42;;;;;;;15.11;100.00;101358.94;5032911;28;20053;-70
2022/10/16 10:44:25;;;;;;;12.23;2.67;;;;;;;15.20;100.00;101359.38;5033215;28;20108;-71
2022/10/16 10:46:55;;;;;;;7.82;2.00;;;;;;;15.31;100.00;101363.13;5031872;28;20033;-73
2022/10/16 10:49:39;;;;;;;13.90;2.88;;;;;;;15.34;100.00;101368.94;5021363;28;20030;-73
2022/10/16 10:52:05;;;;;;;15.15;2.72;;;;;;;15.28;94.62;101380.81;5013371;28;20026;-78
2022/10/16 10:54:49;;;;;;;15.07;2.88;;;;;;;15.23;100.00;101384.28;5025151;28;20075;-78
2022/10/16 10:57:25;;;;;;;14.27;2.65;;;;;;;15.20;96.96;101379.31;5031806;28;20025;-73
2022/10/16 11:00:07;;;;;;;11.88;2.38;;;;;;;15.17;99.12;101384.41;5031721;28;20029;-73
2022/10/16 11:02:52;;;;;;;19.55;5.90;;;;;;;15.12;100.00;101376.13;5020904;28;20026;-72
2022/10/16 11:05:40;;;;;;;11.95;3.35;;;;;;;15.12;99.40;101384.31;5013175;28;20034;-73
2022/10/16 11:08:18;;;;;;;22.25;9.90;;;;;;;15.07;99.48;101376.88;5012839;28;20025;-72
2022/10/16 11:11:22;;;;;;;9.55;2.70;;;;;;;15.05;100.00;101381.72;5018410;28;20021;-70
2022/10/16 11:14:13;;;;;;;17.00;3.20;;;;;;;15.01;98.64;101380.56;5026297;28;20112;-69
2022/10/16 11:16:47;;;;;;;15.77;4.80;;;;;;;15.11;98.33;101385.38;5026721;28;20083;-69
2022/10/16 11:19:20;;;;;;;20.30;3.45;;;;;;;15.19;96.89;101383.09;5030457;28;20037;-69
2022/10/16 11:22:06;;;;;;;14.20;3.78;;;;;;;15.22;99.08;101381.78;5031091;28;20033;-69
2022/10/16 11:24:54;;;;;;;13.35;4.68;;;;;;;15.26;99.16;101385.66;5025607;28;20042;-69